sensor_id;sensor_type;location;lat;lon;timestamp;P1;durP1;ratioP1;P2;durP2;ratioP2
77705;SDS011;66874;45.274;5.880;2023-09-12T00:00:45;5.65;;;5.03;;
77705;SDS011;66874;45.274;5.880;2023-09-12T00:03:11;8.32;;;5.75;;
77705;SDS011;66874;45.274;5.880;2023-09-12T00:05:36;5.60;;;4.63;;
77705;SDS011;66874;45.274;5.880;2023-09-12T00:08:02;8.60;;;5.47;;
77705;SDS011;66874;45.274;5.880;2023-09-12T00:10:28;8.10;;;5.50;;
77705;SDS011;66874;45.274;5.880;2023-09-12T00:12:54;6.50;;;5.10;;
77705;SDS011;66874;45.274;5.880;2023-09-12T00:15:20;9.27;;;5.50;;
77705;SDS011;66874;45.274;5.880;2023-09-12T00:17:46;6.93;;;5.28;;
77705;SDS011;66874;45.274;5.880;2023-09-12T00:22:38;8.13;;;5.70;;
77705;SDS011;66874;45.274;5.880;2023-09-12T00:25:04;8.07;;;5.60;;
77705;SDS011;66874;45.274;5.880;2023-09-12T00:27:29;8.55;;;5.47;;
77705;SDS011;66874;45.274;5.880;2023-09-12T00:29:55;9.02;;;5.35;;
77705;SDS011;66874;45.274;5.880;2023-09-12T00:32:20;6.63;;;5.20;;
77705;SDS011;66874;45.274;5.880;2023-09-12T00:34:46;12.20;;;5.22;;
77705;SDS011;66874;45.274;5.880;2023-09-12T00:37:11;6.72;;;5.72;;
77705;SDS011;66874;45.274;5.880;2023-09-12T00:39:37;9.05;;;6.53;;
77705;SDS011;66874;45.274;5.880;2023-09-12T00:42:02;9.23;;;6.82;;
77705;SDS011;66874;45.274;5.880;2023-09-12T00:44:28;6.68;;;5.97;;
77705;SDS011;66874;45.274;5.880;2023-09-12T00:46:53;14.20;;;7.28;;
77705;SDS011;66874;45.274;5.880;2023-09-12T00:49:19;8.55;;;6.95;;
77705;SDS011;66874;45.274;5.880;2023-09-12T00:51:47;10.65;;;6.88;;
77705;SDS011;66874;45.274;5.880;2023-09-12T00:54:15;8.73;;;6.80;;
77705;SDS011;66874;45.274;5.880;2023-09-12T00:56:40;13.57;;;7.05;;
77705;SDS011;66874;45.274;5.880;2023-09-12T00:59:06;9.25;;;6.50;;
77705;SDS011;66874;45.274;5.880;2023-09-12T01:01:33;9.30;;;6.75;;
77705;SDS011;66874;45.274;5.880;2023-09-12T01:03:59;9.18;;;7.10;;
77705;SDS011;66874;45.274;5.880;2023-09-12T01:08:54;9.82;;;7.60;;
77705;SDS011;66874;45.274;5.880;2023-09-12T01:11:20;11.63;;;7.10;;
77705;SDS011;66874;45.274;5.880;2023-09-12T01:13:47;11.57;;;6.22;;
77705;SDS011;66874;45.274;5.880;2023-09-12T01:16:12;9.43;;;6.85;;
77705;SDS011;66874;45.274;5.880;2023-09-12T01:18:37;12.60;;;6.57;;
77705;SDS011;66874;45.274;5.880;2023-09-12T01:28:46;11.35;;;7.45;;
77705;SDS011;66874;45.274;5.880;2023-09-12T01:31:15;8.90;;;7.07;;
77705;SDS011;66874;45.274;5.880;2023-09-12T01:33:42;9.85;;;7.50;;
77705;SDS011;66874;45.274;5.880;2023-09-12T01:36:09;10.18;;;6.85;;
77705;SDS011;66874;45.274;5.880;2023-09-12T01:38:35;12.27;;;7.60;;
77705;SDS011;66874;45.274;5.880;2023-09-12T01:41:00;12.07;;;6.82;;
77705;SDS011;66874;45.274;5.880;2023-09-12T01:43:26;9.13;;;7.05;;
77705;SDS011;66874;45.274;5.880;2023-09-12T01:45:53;11.95;;;7.03;;
77705;SDS011;66874;45.274;5.880;2023-09-12T01:48:21;10.55;;;7.03;;
77705;SDS011;66874;45.274;5.880;2023-09-12T01:50:49;9.68;;;7.30;;
77705;SDS011;66874;45.274;5.880;2023-09-12T01:53:15;8.23;;;6.40;;
77705;SDS011;66874;45.274;5.880;2023-09-12T01:55:42;8.75;;;6.90;;
77705;SDS011;66874;45.274;5.880;2023-09-12T02:00:34;14.13;;;6.60;;
77705;SDS011;66874;45.274;5.880;2023-09-12T02:03:01;9.60;;;6.93;;
77705;SDS011;66874;45.274;5.880;2023-09-12T02:07:53;7.75;;;6.18;;
77705;SDS011;66874;45.274;5.880;2023-09-12T02:10:19;7.80;;;6.68;;
77705;SDS011;66874;45.274;5.880;2023-09-12T02:12:44;15.02;;;7.20;;
77705;SDS011;66874;45.274;5.880;2023-09-12T02:15:09;9.60;;;6.45;;
77705;SDS011;66874;45.274;5.880;2023-09-12T02:17:35;10.07;;;7.32;;
77705;SDS011;66874;45.274;5.880;2023-09-12T02:20:00;8.95;;;6.63;;
77705;SDS011;66874;45.274;5.880;2023-09-12T02:22:26;7.45;;;6.60;;
77705;SDS011;66874;45.274;5.880;2023-09-12T02:24:51;9.30;;;6.78;;
77705;SDS011;66874;45.274;5.880;2023-09-12T02:27:17;7.07;;;6.35;;
77705;SDS011;66874;45.274;5.880;2023-09-12T02:29:42;13.27;;;7.13;;
77705;SDS011;66874;45.274;5.880;2023-09-12T02:32:08;10.57;;;6.88;;
77705;SDS011;66874;45.274;5.880;2023-09-12T02:34:34;10.55;;;6.80;;
77705;SDS011;66874;45.274;5.880;2023-09-12T02:36:59;11.52;;;6.45;;
77705;SDS011;66874;45.274;5.880;2023-09-12T02:39:25;8.25;;;6.75;;
77705;SDS011;66874;45.274;5.880;2023-09-12T02:41:50;9.05;;;6.85;;
77705;SDS011;66874;45.274;5.880;2023-09-12T02:44:16;8.45;;;6.30;;
77705;SDS011;66874;45.274;5.880;2023-09-12T02:46:41;8.45;;;6.85;;
77705;SDS011;66874;45.274;5.880;2023-09-12T02:49:07;10.73;;;7.22;;
77705;SDS011;66874;45.274;5.880;2023-09-12T02:51:32;11.20;;;7.10;;
77705;SDS011;66874;45.274;5.880;2023-09-12T02:53:57;10.90;;;7.13;;
77705;SDS011;66874;45.274;5.880;2023-09-12T02:56:23;9.57;;;6.45;;
77705;SDS011;66874;45.274;5.880;2023-09-12T02:58:48;8.30;;;6.88;;
77705;SDS011;66874;45.274;5.880;2023-09-12T03:01:17;7.85;;;6.50;;
77705;SDS011;66874;45.274;5.880;2023-09-12T03:03:47;11.60;;;7.00;;
77705;SDS011;66874;45.274;5.880;2023-09-12T03:06:14;10.57;;;7.30;;
77705;SDS011;66874;45.274;5.880;2023-09-12T03:08:40;14.18;;;6.75;;
77705;SDS011;66874;45.274;5.880;2023-09-12T03:11:05;8.70;;;6.65;;
77705;SDS011;66874;45.274;5.880;2023-09-12T03:13:32;10.95;;;7.05;;
77705;SDS011;66874;45.274;5.880;2023-09-12T03:15:59;13.50;;;7.30;;
77705;SDS011;66874;45.274;5.880;2023-09-12T03:18:25;13.05;;;6.90;;
77705;SDS011;66874;45.274;5.880;2023-09-12T03:20:50;8.43;;;6.68;;
77705;SDS011;66874;45.274;5.880;2023-09-12T03:23:15;10.07;;;6.53;;
77705;SDS011;66874;45.274;5.880;2023-09-12T03:25:41;11.57;;;7.60;;
77705;SDS011;66874;45.274;5.880;2023-09-12T03:28:06;10.27;;;6.47;;
77705;SDS011;66874;45.274;5.880;2023-09-12T03:30:33;11.93;;;7.65;;
77705;SDS011;66874;45.274;5.880;2023-09-12T03:32:58;8.02;;;7.18;;
77705;SDS011;66874;45.274;5.880;2023-09-12T03:35:24;8.25;;;6.40;;
77705;SDS011;66874;45.274;5.880;2023-09-12T03:37:49;9.77;;;6.97;;
77705;SDS011;66874;45.274;5.880;2023-09-12T03:40:14;7.47;;;6.30;;
77705;SDS011;66874;45.274;5.880;2023-09-12T03:42:40;13.35;;;8.35;;
77705;SDS011;66874;45.274;5.880;2023-09-12T03:45:05;9.75;;;6.43;;
77705;SDS011;66874;45.274;5.880;2023-09-12T03:47:31;9.07;;;6.82;;
77705;SDS011;66874;45.274;5.880;2023-09-12T03:49:56;13.38;;;8.13;;
77705;SDS011;66874;45.274;5.880;2023-09-12T03:52:22;13.30;;;7.85;;
77705;SDS011;66874;45.274;5.880;2023-09-12T03:54:47;13.23;;;6.57;;
77705;SDS011;66874;45.274;5.880;2023-09-12T03:57:12;23.50;;;9.77;;
77705;SDS011;66874;45.274;5.880;2023-09-12T03:59:38;15.85;;;8.35;;
77705;SDS011;66874;45.274;5.880;2023-09-12T04:02:03;13.90;;;8.52;;
77705;SDS011;66874;45.274;5.880;2023-09-12T04:04:29;15.10;;;8.15;;
77705;SDS011;66874;45.274;5.880;2023-09-12T04:06:54;12.77;;;7.93;;
77705;SDS011;66874;45.274;5.880;2023-09-12T04:09:20;16.77;;;8.98;;
77705;SDS011;66874;45.274;5.880;2023-09-12T04:11:45;13.93;;;8.07;;
77705;SDS011;66874;45.274;5.880;2023-09-12T04:14:11;13.52;;;7.53;;
77705;SDS011;66874;45.274;5.880;2023-09-12T04:16:37;13.48;;;8.25;;
77705;SDS011;66874;45.274;5.880;2023-09-12T04:19:03;10.68;;;7.72;;
77705;SDS011;66874;45.274;5.880;2023-09-12T04:21:28;9.40;;;7.40;;
77705;SDS011;66874;45.274;5.880;2023-09-12T04:23:54;9.95;;;7.28;;
77705;SDS011;66874;45.274;5.880;2023-09-12T04:26:19;10.43;;;7.25;;
77705;SDS011;66874;45.274;5.880;2023-09-12T04:28:46;12.65;;;8.68;;
77705;SDS011;66874;45.274;5.880;2023-09-12T04:31:12;10.90;;;7.93;;
77705;SDS011;66874;45.274;5.880;2023-09-12T04:33:37;13.88;;;8.40;;
77705;SDS011;66874;45.274;5.880;2023-09-12T04:36:03;11.15;;;7.88;;
77705;SDS011;66874;45.274;5.880;2023-09-12T04:38:28;11.13;;;7.60;;
77705;SDS011;66874;45.274;5.880;2023-09-12T04:40:55;9.73;;;7.38;;
77705;SDS011;66874;45.274;5.880;2023-09-12T04:43:22;10.98;;;7.22;;
77705;SDS011;66874;45.274;5.880;2023-09-12T04:45:48;8.48;;;6.93;;
77705;SDS011;66874;45.274;5.880;2023-09-12T04:48:14;12.52;;;8.00;;
77705;SDS011;66874;45.274;5.880;2023-09-12T04:50:42;13.13;;;7.80;;
77705;SDS011;66874;45.274;5.880;2023-09-12T04:53:08;10.95;;;7.55;;
77705;SDS011;66874;45.274;5.880;2023-09-12T04:55:37;8.48;;;7.57;;
77705;SDS011;66874;45.274;5.880;2023-09-12T04:58:02;10.95;;;7.57;;
77705;SDS011;66874;45.274;5.880;2023-09-12T05:00:29;10.73;;;7.75;;
77705;SDS011;66874;45.274;5.880;2023-09-12T05:02:54;9.60;;;7.95;;
77705;SDS011;66874;45.274;5.880;2023-09-12T05:05:20;14.98;;;7.85;;
77705;SDS011;66874;45.274;5.880;2023-09-12T05:07:45;9.23;;;7.38;;
77705;SDS011;66874;45.274;5.880;2023-09-12T05:10:11;10.70;;;7.90;;
77705;SDS011;66874;45.274;5.880;2023-09-12T05:12:36;11.38;;;7.55;;
77705;SDS011;66874;45.274;5.880;2023-09-12T05:15:01;13.23;;;7.57;;
77705;SDS011;66874;45.274;5.880;2023-09-12T05:17:27;9.93;;;7.20;;
77705;SDS011;66874;45.274;5.880;2023-09-12T05:19:53;12.00;;;8.45;;
77705;SDS011;66874;45.274;5.880;2023-09-12T05:22:18;10.63;;;7.68;;
77705;SDS011;66874;45.274;5.880;2023-09-12T05:24:45;9.85;;;7.07;;
77705;SDS011;66874;45.274;5.880;2023-09-12T05:27:10;9.63;;;7.30;;
77705;SDS011;66874;45.274;5.880;2023-09-12T05:29:36;12.13;;;7.53;;
77705;SDS011;66874;45.274;5.880;2023-09-12T05:32:01;10.90;;;7.10;;
77705;SDS011;66874;45.274;5.880;2023-09-12T05:34:27;12.95;;;6.97;;
77705;SDS011;66874;45.274;5.880;2023-09-12T05:36:53;9.02;;;7.03;;
77705;SDS011;66874;45.274;5.880;2023-09-12T05:39:18;14.52;;;7.72;;
77705;SDS011;66874;45.274;5.880;2023-09-12T05:41:43;8.23;;;7.07;;
77705;SDS011;66874;45.274;5.880;2023-09-12T05:44:09;8.20;;;6.70;;
77705;SDS011;66874;45.274;5.880;2023-09-12T05:46:37;13.30;;;7.43;;
77705;SDS011;66874;45.274;5.880;2023-09-12T05:49:02;10.65;;;7.57;;
77705;SDS011;66874;45.274;5.880;2023-09-12T05:51:28;12.13;;;7.28;;
77705;SDS011;66874;45.274;5.880;2023-09-12T05:53:54;14.18;;;7.47;;
77705;SDS011;66874;45.274;5.880;2023-09-12T05:56:19;9.45;;;7.07;;
77705;SDS011;66874;45.274;5.880;2023-09-12T05:58:45;10.50;;;6.90;;
77705;SDS011;66874;45.274;5.880;2023-09-12T06:01:11;16.60;;;7.53;;
77705;SDS011;66874;45.274;5.880;2023-09-12T06:03:36;19.10;;;7.32;;
77705;SDS011;66874;45.274;5.880;2023-09-12T06:06:02;11.27;;;7.95;;
77705;SDS011;66874;45.274;5.880;2023-09-12T06:08:27;12.65;;;8.38;;
77705;SDS011;66874;45.274;5.880;2023-09-12T06:10:52;14.95;;;9.38;;
77705;SDS011;66874;45.274;5.880;2023-09-12T06:13:19;21.23;;;9.38;;
77705;SDS011;66874;45.274;5.880;2023-09-12T06:15:45;19.17;;;9.82;;
77705;SDS011;66874;45.274;5.880;2023-09-12T06:18:10;14.35;;;8.98;;
77705;SDS011;66874;45.274;5.880;2023-09-12T06:20:36;15.45;;;9.50;;
77705;SDS011;66874;45.274;5.880;2023-09-12T06:23:01;11.88;;;8.68;;
77705;SDS011;66874;45.274;5.880;2023-09-12T06:25:28;16.40;;;9.88;;
77705;SDS011;66874;45.274;5.880;2023-09-12T06:27:54;12.68;;;9.15;;
77705;SDS011;66874;45.274;5.880;2023-09-12T06:30:19;15.07;;;10.02;;
77705;SDS011;66874;45.274;5.880;2023-09-12T06:32:45;22.98;;;9.55;;
77705;SDS011;66874;45.274;5.880;2023-09-12T06:35:10;16.35;;;9.85;;
77705;SDS011;66874;45.274;5.880;2023-09-12T06:37:39;19.63;;;9.52;;
77705;SDS011;66874;45.274;5.880;2023-09-12T06:40:05;13.20;;;9.13;;
77705;SDS011;66874;45.274;5.880;2023-09-12T06:42:31;11.88;;;8.23;;
77705;SDS011;66874;45.274;5.880;2023-09-12T06:44:57;12.48;;;8.35;;
77705;SDS011;66874;45.274;5.880;2023-09-12T06:47:22;14.90;;;8.80;;
77705;SDS011;66874;45.274;5.880;2023-09-12T06:49:47;13.48;;;9.38;;
77705;SDS011;66874;45.274;5.880;2023-09-12T06:52:13;11.95;;;8.60;;
77705;SDS011;66874;45.274;5.880;2023-09-12T06:54:38;13.43;;;8.05;;
77705;SDS011;66874;45.274;5.880;2023-09-12T06:57:03;14.35;;;8.82;;
77705;SDS011;66874;45.274;5.880;2023-09-12T06:59:29;14.68;;;8.73;;
77705;SDS011;66874;45.274;5.880;2023-09-12T07:01:54;12.55;;;7.45;;
77705;SDS011;66874;45.274;5.880;2023-09-12T07:04:20;18.23;;;8.88;;
77705;SDS011;66874;45.274;5.880;2023-09-12T07:06:45;17.15;;;8.75;;
77705;SDS011;66874;45.274;5.880;2023-09-12T07:09:11;17.88;;;9.25;;
77705;SDS011;66874;45.274;5.880;2023-09-12T07:11:39;17.58;;;9.00;;
77705;SDS011;66874;45.274;5.880;2023-09-12T07:14:04;17.60;;;9.15;;
77705;SDS011;66874;45.274;5.880;2023-09-12T07:16:30;22.35;;;10.60;;
77705;SDS011;66874;45.274;5.880;2023-09-12T07:18:56;18.00;;;9.07;;
77705;SDS011;66874;45.274;5.880;2023-09-12T07:21:22;24.20;;;9.32;;
77705;SDS011;66874;45.274;5.880;2023-09-12T07:23:47;16.73;;;9.02;;
77705;SDS011;66874;45.274;5.880;2023-09-12T07:26:13;15.30;;;7.60;;
77705;SDS011;66874;45.274;5.880;2023-09-12T07:28:39;13.30;;;7.05;;
77705;SDS011;66874;45.274;5.880;2023-09-12T07:31:05;10.45;;;6.88;;
77705;SDS011;66874;45.274;5.880;2023-09-12T07:33:30;15.23;;;7.95;;
77705;SDS011;66874;45.274;5.880;2023-09-12T07:35:56;13.05;;;7.38;;
77705;SDS011;66874;45.274;5.880;2023-09-12T07:38:22;15.98;;;8.07;;
77705;SDS011;66874;45.274;5.880;2023-09-12T07:40:48;11.13;;;7.32;;
77705;SDS011;66874;45.274;5.880;2023-09-12T07:43:13;12.45;;;9.00;;
77705;SDS011;66874;45.274;5.880;2023-09-12T07:45:39;11.70;;;7.40;;
77705;SDS011;66874;45.274;5.880;2023-09-12T07:48:07;13.27;;;7.82;;
77705;SDS011;66874;45.274;5.880;2023-09-12T07:50:35;13.52;;;7.72;;
77705;SDS011;66874;45.274;5.880;2023-09-12T07:53:04;13.27;;;7.32;;
77705;SDS011;66874;45.274;5.880;2023-09-12T07:55:38;11.93;;;8.02;;
77705;SDS011;66874;45.274;5.880;2023-09-12T07:58:11;12.98;;;8.15;;
77705;SDS011;66874;45.274;5.880;2023-09-12T08:00:40;12.80;;;7.38;;
77705;SDS011;66874;45.274;5.880;2023-09-12T08:03:05;10.00;;;7.13;;
77705;SDS011;66874;45.274;5.880;2023-09-12T08:05:31;10.65;;;6.93;;
77705;SDS011;66874;45.274;5.880;2023-09-12T08:07:56;15.27;;;7.53;;
77705;SDS011;66874;45.274;5.880;2023-09-12T08:10:22;11.32;;;7.88;;
77705;SDS011;66874;45.274;5.880;2023-09-12T08:12:47;14.23;;;7.57;;
77705;SDS011;66874;45.274;5.880;2023-09-12T08:15:12;10.52;;;6.88;;
77705;SDS011;66874;45.274;5.880;2023-09-12T08:17:38;14.05;;;7.20;;
77705;SDS011;66874;45.274;5.880;2023-09-12T08:20:04;8.57;;;6.95;;
77705;SDS011;66874;45.274;5.880;2023-09-12T08:22:31;10.43;;;6.47;;
77705;SDS011;66874;45.274;5.880;2023-09-12T08:24:56;16.13;;;6.78;;
77705;SDS011;66874;45.274;5.880;2023-09-12T08:27:21;16.80;;;7.28;;
77705;SDS011;66874;45.274;5.880;2023-09-12T08:29:48;15.48;;;6.72;;
77705;SDS011;66874;45.274;5.880;2023-09-12T08:32:14;17.20;;;7.25;;
77705;SDS011;66874;45.274;5.880;2023-09-12T08:34:39;10.25;;;6.18;;
77705;SDS011;66874;45.274;5.880;2023-09-12T08:37:04;14.27;;;6.78;;
77705;SDS011;66874;45.274;5.880;2023-09-12T08:39:41;13.00;;;6.57;;
77705;SDS011;66874;45.274;5.880;2023-09-12T08:42:10;11.13;;;6.55;;
77705;SDS011;66874;45.274;5.880;2023-09-12T08:44:38;10.00;;;6.25;;
77705;SDS011;66874;45.274;5.880;2023-09-12T08:47:05;17.20;;;6.50;;
77705;SDS011;66874;45.274;5.880;2023-09-12T08:51:59;14.45;;;6.93;;
77705;SDS011;66874;45.274;5.880;2023-09-12T08:54:25;14.18;;;7.13;;
77705;SDS011;66874;45.274;5.880;2023-09-12T08:56:50;13.07;;;6.55;;
77705;SDS011;66874;45.274;5.880;2023-09-12T08:59:16;10.90;;;6.57;;
77705;SDS011;66874;45.274;5.880;2023-09-12T09:01:42;11.93;;;6.80;;
77705;SDS011;66874;45.274;5.880;2023-09-12T09:04:09;12.15;;;6.28;;
77705;SDS011;66874;45.274;5.880;2023-09-12T09:06:34;12.30;;;6.60;;
77705;SDS011;66874;45.274;5.880;2023-09-12T09:09:04;13.93;;;7.20;;
77705;SDS011;66874;45.274;5.880;2023-09-12T09:11:31;11.75;;;7.15;;
77705;SDS011;66874;45.274;5.880;2023-09-12T09:13:56;13.63;;;7.07;;
77705;SDS011;66874;45.274;5.880;2023-09-12T09:16:21;11.60;;;6.75;;
77705;SDS011;66874;45.274;5.880;2023-09-12T09:18:55;16.58;;;7.85;;
77705;SDS011;66874;45.274;5.880;2023-09-12T09:21:23;10.88;;;6.75;;
77705;SDS011;66874;45.274;5.880;2023-09-12T09:23:53;12.18;;;6.53;;
77705;SDS011;66874;45.274;5.880;2023-09-12T09:26:20;17.02;;;6.93;;
77705;SDS011;66874;45.274;5.880;2023-09-12T09:28:46;13.65;;;6.35;;
77705;SDS011;66874;45.274;5.880;2023-09-12T09:31:31;9.93;;;6.43;;
77705;SDS011;66874;45.274;5.880;2023-09-12T09:33:58;9.52;;;6.15;;
77705;SDS011;66874;45.274;5.880;2023-09-12T09:36:24;8.82;;;6.55;;
77705;SDS011;66874;45.274;5.880;2023-09-12T09:38:51;9.98;;;6.65;;
77705;SDS011;66874;45.274;5.880;2023-09-12T09:41:19;11.02;;;6.15;;
77705;SDS011;66874;45.274;5.880;2023-09-12T09:43:46;11.18;;;5.90;;
77705;SDS011;66874;45.274;5.880;2023-09-12T09:46:15;8.68;;;6.30;;
77705;SDS011;66874;45.274;5.880;2023-09-12T09:48:48;10.50;;;6.57;;
77705;SDS011;66874;45.274;5.880;2023-09-12T09:51:14;11.88;;;7.07;;
77705;SDS011;66874;45.274;5.880;2023-09-12T09:53:39;12.13;;;7.18;;
77705;SDS011;66874;45.274;5.880;2023-09-12T09:56:11;9.60;;;6.60;;
77705;SDS011;66874;45.274;5.880;2023-09-12T09:58:42;11.35;;;7.30;;
77705;SDS011;66874;45.274;5.880;2023-09-12T10:01:28;8.80;;;6.53;;
77705;SDS011;66874;45.274;5.880;2023-09-12T10:03:59;8.00;;;6.70;;
77705;SDS011;66874;45.274;5.880;2023-09-12T10:06:26;13.70;;;6.72;;
77705;SDS011;66874;45.274;5.880;2023-09-12T10:08:53;10.82;;;6.88;;
77705;SDS011;66874;45.274;5.880;2023-09-12T10:11:23;15.23;;;6.65;;
77705;SDS011;66874;45.274;5.880;2023-09-12T10:13:51;12.70;;;6.07;;
77705;SDS011;66874;45.274;5.880;2023-09-12T10:16:19;12.07;;;7.07;;
77705;SDS011;66874;45.274;5.880;2023-09-12T10:18:58;12.65;;;6.75;;
77705;SDS011;66874;45.274;5.880;2023-09-12T10:21:31;10.25;;;6.53;;
77705;SDS011;66874;45.274;5.880;2023-09-12T10:24:00;9.45;;;6.60;;
77705;SDS011;66874;45.274;5.880;2023-09-12T10:26:28;9.40;;;6.18;;
77705;SDS011;66874;45.274;5.880;2023-09-12T10:28:56;9.15;;;6.43;;
77705;SDS011;66874;45.274;5.880;2023-09-12T10:31:22;16.90;;;6.43;;
77705;SDS011;66874;45.274;5.880;2023-09-12T10:33:49;20.25;;;7.07;;
77705;SDS011;66874;45.274;5.880;2023-09-12T10:36:15;10.43;;;7.07;;
77705;SDS011;66874;45.274;5.880;2023-09-12T10:38:43;13.23;;;7.18;;
77705;SDS011;66874;45.274;5.880;2023-09-12T10:41:11;14.20;;;6.60;;
77705;SDS011;66874;45.274;5.880;2023-09-12T10:43:39;7.40;;;6.70;;
77705;SDS011;66874;45.274;5.880;2023-09-12T10:46:06;10.85;;;7.25;;
77705;SDS011;66874;45.274;5.880;2023-09-12T10:48:32;10.52;;;6.57;;
77705;SDS011;66874;45.274;5.880;2023-09-12T10:51:00;7.70;;;6.85;;
77705;SDS011;66874;45.274;5.880;2023-09-12T10:53:30;14.02;;;6.47;;
77705;SDS011;66874;45.274;5.880;2023-09-12T10:55:59;12.00;;;6.93;;
77705;SDS011;66874;45.274;5.880;2023-09-12T10:58:26;11.20;;;6.80;;
77705;SDS011;66874;45.274;5.880;2023-09-12T11:03:47;11.43;;;7.03;;
77705;SDS011;66874;45.274;5.880;2023-09-12T11:06:19;11.02;;;6.88;;
77705;SDS011;66874;45.274;5.880;2023-09-12T11:09:15;15.75;;;7.10;;
77705;SDS011;66874;45.274;5.880;2023-09-12T11:11:38;21.15;;;8.35;;
77705;SDS011;66874;45.274;5.880;2023-09-12T11:14:04;19.17;;;7.63;;
77705;SDS011;66874;45.274;5.880;2023-09-12T11:16:31;7.28;;;6.57;;
77705;SDS011;66874;45.274;5.880;2023-09-12T11:21:47;9.95;;;7.15;;
77705;SDS011;66874;45.274;5.880;2023-09-12T11:24:15;10.65;;;7.15;;
77705;SDS011;66874;45.274;5.880;2023-09-12T11:26:54;16.95;;;7.47;;
77705;SDS011;66874;45.274;5.880;2023-09-12T11:29:27;9.85;;;7.50;;
77705;SDS011;66874;45.274;5.880;2023-09-12T11:31:55;11.55;;;7.25;;
77705;SDS011;66874;45.274;5.880;2023-09-12T11:34:27;8.35;;;7.45;;
77705;SDS011;66874;45.274;5.880;2023-09-12T11:36:56;10.10;;;7.05;;
77705;SDS011;66874;45.274;5.880;2023-09-12T11:39:27;20.70;;;7.63;;
77705;SDS011;66874;45.274;5.880;2023-09-12T11:41:55;14.13;;;8.00;;
77705;SDS011;66874;45.274;5.880;2023-09-12T11:44:21;9.50;;;6.72;;
77705;SDS011;66874;45.274;5.880;2023-09-12T11:46:48;14.57;;;8.33;;
77705;SDS011;66874;45.274;5.880;2023-09-12T11:49:17;14.70;;;7.63;;
77705;SDS011;66874;45.274;5.880;2023-09-12T11:51:46;20.37;;;7.60;;
77705;SDS011;66874;45.274;5.880;2023-09-12T11:54:24;12.60;;;8.23;;
77705;SDS011;66874;45.274;5.880;2023-09-12T11:56:51;9.80;;;7.45;;
77705;SDS011;66874;45.274;5.880;2023-09-12T11:59:24;13.35;;;8.95;;
77705;SDS011;66874;45.274;5.880;2023-09-12T12:01:51;9.25;;;8.32;;
77705;SDS011;66874;45.274;5.880;2023-09-12T12:04:17;9.63;;;7.00;;
77705;SDS011;66874;45.274;5.880;2023-09-12T12:06:45;13.38;;;6.78;;
77705;SDS011;66874;45.274;5.880;2023-09-12T12:09:10;10.57;;;7.23;;
77705;SDS011;66874;45.274;5.880;2023-09-12T12:11:36;6.67;;;6.10;;
77705;SDS011;66874;45.274;5.880;2023-09-12T12:14:14;9.77;;;7.13;;
77705;SDS011;66874;45.274;5.880;2023-09-12T12:16:41;9.52;;;6.82;;
77705;SDS011;66874;45.274;5.880;2023-09-12T12:19:08;9.18;;;7.18;;
77705;SDS011;66874;45.274;5.880;2023-09-12T12:21:34;10.18;;;7.10;;
77705;SDS011;66874;45.274;5.880;2023-09-12T12:24:00;8.60;;;7.80;;
77705;SDS011;66874;45.274;5.880;2023-09-12T12:26:27;13.02;;;7.35;;
77705;SDS011;66874;45.274;5.880;2023-09-12T12:28:52;10.00;;;7.73;;
77705;SDS011;66874;45.274;5.880;2023-09-12T12:31:18;9.63;;;6.90;;
77705;SDS011;66874;45.274;5.880;2023-09-12T12:33:54;10.02;;;7.00;;
77705;SDS011;66874;45.274;5.880;2023-09-12T12:36:20;8.30;;;7.50;;
77705;SDS011;66874;45.274;5.880;2023-09-12T12:38:46;7.20;;;6.50;;
77705;SDS011;66874;45.274;5.880;2023-09-12T12:41:16;12.50;;;7.47;;
77705;SDS011;66874;45.274;5.880;2023-09-12T12:43:49;8.10;;;7.00;;
77705;SDS011;66874;45.274;5.880;2023-09-12T12:46:16;11.77;;;7.22;;
77705;SDS011;66874;45.274;5.880;2023-09-12T12:48:44;11.55;;;6.50;;
77705;SDS011;66874;45.274;5.880;2023-09-12T12:53:48;9.48;;;6.93;;
77705;SDS011;66874;45.274;5.880;2023-09-12T12:56:18;12.77;;;6.82;;
77705;SDS011;66874;45.274;5.880;2023-09-12T12:58:48;7.15;;;6.03;;
77705;SDS011;66874;45.274;5.880;2023-09-12T13:01:15;9.38;;;7.00;;
77705;SDS011;66874;45.274;5.880;2023-09-12T13:03:41;12.82;;;6.72;;
77705;SDS011;66874;45.274;5.880;2023-09-12T13:06:06;7.27;;;6.37;;
77705;SDS011;66874;45.274;5.880;2023-09-12T13:08:38;10.70;;;6.18;;
77705;SDS011;66874;45.274;5.880;2023-09-12T13:11:04;9.75;;;6.85;;
77705;SDS011;66874;45.274;5.880;2023-09-12T13:13:29;8.70;;;6.63;;
77705;SDS011;66874;45.274;5.880;2023-09-12T13:15:54;7.97;;;6.27;;
77705;SDS011;66874;45.274;5.880;2023-09-12T13:18:20;7.03;;;6.03;;
77705;SDS011;66874;45.274;5.880;2023-09-12T13:20:46;8.05;;;7.05;;
77705;SDS011;66874;45.274;5.880;2023-09-12T13:23:11;7.10;;;6.40;;
77705;SDS011;66874;45.274;5.880;2023-09-12T13:25:36;7.07;;;6.30;;
77705;SDS011;66874;45.274;5.880;2023-09-12T13:28:02;8.13;;;6.70;;
77705;SDS011;66874;45.274;5.880;2023-09-12T13:30:27;8.33;;;6.47;;
77705;SDS011;66874;45.274;5.880;2023-09-12T13:32:53;12.93;;;6.37;;
77705;SDS011;66874;45.274;5.880;2023-09-12T13:35:18;15.87;;;7.30;;
77705;SDS011;66874;45.274;5.880;2023-09-12T13:37:44;10.90;;;6.13;;
77705;SDS011;66874;45.274;5.880;2023-09-12T13:40:09;9.40;;;6.00;;
77705;SDS011;66874;45.274;5.880;2023-09-12T13:42:35;7.10;;;6.47;;
77705;SDS011;66874;45.274;5.880;2023-09-12T13:45:00;7.57;;;6.20;;
77705;SDS011;66874;45.274;5.880;2023-09-12T13:47:26;9.43;;;6.50;;
77705;SDS011;66874;45.274;5.880;2023-09-12T13:49:51;13.27;;;6.40;;
77705;SDS011;66874;45.274;5.880;2023-09-12T13:54:44;8.57;;;6.40;;
77705;SDS011;66874;45.274;5.880;2023-09-12T13:57:09;6.47;;;5.93;;
77705;SDS011;66874;45.274;5.880;2023-09-12T13:59:34;7.77;;;6.97;;
77705;SDS011;66874;45.274;5.880;2023-09-12T14:02:00;11.30;;;6.67;;
77705;SDS011;66874;45.274;5.880;2023-09-12T14:04:25;8.63;;;6.63;;
77705;SDS011;66874;45.274;5.880;2023-09-12T14:06:50;9.43;;;5.93;;
77705;SDS011;66874;45.274;5.880;2023-09-12T14:09:16;9.18;;;6.90;;
77705;SDS011;66874;45.274;5.880;2023-09-12T14:11:42;11.50;;;6.73;;
77705;SDS011;66874;45.274;5.880;2023-09-12T14:14:08;10.40;;;7.15;;
77705;SDS011;66874;45.274;5.880;2023-09-12T14:16:33;15.57;;;8.17;;
77705;SDS011;66874;45.274;5.880;2023-09-12T14:18:59;11.87;;;7.30;;
77705;SDS011;66874;45.274;5.880;2023-09-12T14:21:24;10.83;;;6.10;;
77705;SDS011;66874;45.274;5.880;2023-09-12T14:23:49;7.17;;;6.30;;
77705;SDS011;66874;45.274;5.880;2023-09-12T14:26:15;10.17;;;6.17;;
77705;SDS011;66874;45.274;5.880;2023-09-12T14:28:40;6.23;;;5.63;;
77705;SDS011;66874;45.274;5.880;2023-09-12T14:31:05;11.23;;;6.13;;
77705;SDS011;66874;45.274;5.880;2023-09-12T14:33:38;8.07;;;5.70;;
77705;SDS011;66874;45.274;5.880;2023-09-12T14:36:04;10.37;;;5.90;;
77705;SDS011;66874;45.274;5.880;2023-09-12T14:38:29;13.17;;;6.23;;
77705;SDS011;66874;45.274;5.880;2023-09-12T14:40:54;9.60;;;6.23;;
77705;SDS011;66874;45.274;5.880;2023-09-12T14:43:20;9.87;;;6.47;;
77705;SDS011;66874;45.274;5.880;2023-09-12T14:45:46;7.38;;;6.32;;
77705;SDS011;66874;45.274;5.880;2023-09-12T14:48:11;6.60;;;5.83;;
77705;SDS011;66874;45.274;5.880;2023-09-12T14:50:37;10.37;;;6.50;;
77705;SDS011;66874;45.274;5.880;2023-09-12T14:53:02;11.57;;;6.57;;
77705;SDS011;66874;45.274;5.880;2023-09-12T14:55:28;9.87;;;6.80;;
77705;SDS011;66874;45.274;5.880;2023-09-12T14:57:53;7.97;;;6.27;;
77705;SDS011;66874;45.274;5.880;2023-09-12T15:00:19;6.65;;;5.95;;
77705;SDS011;66874;45.274;5.880;2023-09-12T15:02:45;10.37;;;7.30;;
77705;SDS011;66874;45.274;5.880;2023-09-12T15:05:10;9.90;;;6.63;;